Time;durP1;ratioP1;P1;durP2;ratioP2;P2;SDS_P1;SDS_P2;PMS_P1;PMS_P2;Temp;Humidity;BMP_temperature;BMP_pressure;BME280_temperature;BME280_humidity;BME280_pressure;Samples;Min_cycle;Max_cycle;Signal;HPM_P1;HPM_P2
2022/10/28 00:00:27;;;;;;;;;;;;;;;9.57;100.00;101341.94;3050394;19;19931;-53
2022/10/28 00:01:31;;;;;;;;;;;;;;;9.52;100.00;101344.84;3050893;19;20327;-53
2022/10/28 00:02:33;;;;;;;;;;;;;;;9.54;100.00;101353.59;3050724;19;19931;-52
2022/10/28 00:03:41;;;;;;;;;;;;;;;9.55;100.00;101354.47;3051103;19;19926;-53
2022/10/28 00:04:43;;;;;;;;;;;;;;;9.54;100.00;101350.94;3051154;19;19929;-53
2022/10/28 00:05:47;;;;;;;;;;;;;;;9.53;100.00;101359.91;3050052;19;19954;-55
2022/10/28 00:06:49;;;;;;;;;;;;;;;9.51;100.00;101353.75;3051493;19;20669;-53
2022/10/28 00:07:54;;;;;;;;;;;;;;;9.51;100.00;101358.22;3048125;19;19950;-53
2022/10/28 00:08:58;;;;;;;;;;;;;;;9.49;100.00;101354.75;3051145;19;19922;-52
2022/10/28 00:10:00;;;;;;;;;;;;;;;9.48;100.00;101353.88;3050734;19;19933;-52
2022/10/28 00:11:08;;;;;;;;;;;;;;;9.47;100.00;101354.81;3050320;19;19915;-53
2022/10/28 00:12:10;;;;;;;;;;;;;;;9.46;100.00;101355.75;3049566;19;20452;-52
2022/10/28 00:13:15;;;;;;;;;;;;;;;9.45;100.00;101350.47;3050319;19;19919;-53
2022/10/28 00:14:19;;;;;;;;;;;;;;;9.42;100.00;101348.81;3051854;19;20037;-54
2022/10/28 00:15:21;;;;;;;;;;;;;;;9.41;100.00;101352.44;3051763;19;19923;-53
2022/10/28 00:16:27;;;;;;;;;;;;;;;9.41;100.00;101352.44;3051479;19;19919;-53
2022/10/28 00:17:29;;;;;;;;;;;;;;;9.39;100.00;101355.16;3047178;19;20334;-53
2022/10/28 00:18:33;;;;;;;;;;;;;;;9.37;100.00;101350.81;3051255;19;19986;-52
2022/10/28 00:19:38;;;;;;;;;;;;;;;9.36;100.00;101354.41;3050847;19;20310;-53
2022/10/28 00:20:40;;;;;;;;;;;;;;;9.34;100.00;101350.94;3050729;19;19930;-53
2022/10/28 00:21:44;;;;;;;;;;;;;;;9.32;100.00;101358.13;3051126;19;19967;-53
2022/10/28 00:22:46;;;;;;;;;;;;;;;9.29;100.00;101360.94;3050471;19;20261;-52
2022/10/28 00:23:51;;;;;;;;;;;;;;;9.27;100.00;101357.47;3050111;19;20464;-53
2022/10/28 00:24:52;;;;;;;;;;;;;;;9.24;100.00;101354.94;3050919;19;20023;-54
2022/10/28 00:25:57;;;;;;;;;;;;;;;9.20;100.00;101363.97;3050684;19;19929;-53
2022/10/28 00:27:01;;;;;;;;;;;;;;;9.15;100.00;101356.19;3049871;19;20675;-52
2022/10/28 00:28:03;;;;;;;;;;;;;;;9.11;100.00;101365.22;3049598;19;19941;-52
2022/10/28 00:29:09;;;;;;;;;;;;;;;9.07;100.00;101362.75;3051510;19;19922;-52
2022/10/28 00:30:11;;;;;;;;;;;;;;;9.00;100.00;101352.38;3047349;19;19938;-53
2022/10/28 00:31:16;;;;;;;;;;;;;;;8.97;100.00;101365.78;3051227;19;19957;-53
2022/10/28 00:32:18;;;;;;;;;;;;;;;8.93;100.00;101358.03;3050644;19;19919;-53
2022/10/28 00:33:22;;;;;;;;;;;;;;;8.88;100.00;101363.50;3051004;19;19927;-53
2022/10/28 00:34:24;;;;;;;;;;;;;;;8.83;100.00;101361.94;3050390;19;19922;-53
2022/10/28 00:35:28;;;;;;;;;;;;;;;8.79;100.00;101358.56;3050546;19;19954;-52
2022/10/28 00:36:31;;;;;;;;;;;;;;;8.75;100.00;101362.28;3049870;19;19999;-53
2022/10/28 00:37:36;;;;;;;;;;;;;;;8.74;100.00;101355.22;3049409;19;20397;-53
2022/10/28 00:38:38;;;;;;;;;;;;;;;8.69;100.00;101351.88;3050348;19;19922;-53
2022/10/28 00:39:42;;;;;;;;;;;;;;;8.69;100.00;101357.22;3051210;19;19915;-52
2022/10/28 00:40:44;;;;;;;;;;;;;;;8.67;100.00;101348.41;3050387;19;20288;-53
2022/10/28 00:41:50;;;;;;;;;;;;;;;8.68;100.00;101350.16;3050856;19;20277;-52
2022/10/28 00:42:51;;;;;;;;;;;;;;;8.65;100.00;101351.13;3050283;19;20337;-52
2022/10/28 00:44:01;;;;;;;;;;;;;;;8.66;100.00;101344.03;3051525;19;19938;-52
2022/10/28 00:45:03;;;;;;;;;;;;;;;8.66;100.00;101352.00;3050478;19;20260;-53
2022/10/28 00:46:09;;;;;;;;;;;;;;;8.66;100.00;101352.88;3050235;19;20309;-52
2022/10/28 00:47:16;;;;;;;;;;;;;;;8.62;100.00;101345.94;3048125;19;19929;-52
2022/10/28 00:48:20;;;;;;;;;;;;;;;8.61;100.00;101343.31;3050748;19;19923;-53
2022/10/28 00:49:23;;;;;;;;;;;;;;;8.62;100.00;101345.06;3049447;19;19929;-53
2022/10/28 00:50:28;;;;;;;;;;;;;;;8.60;100.00;101347.78;3049222;19;19922;-53
2022/10/28 00:51:32;;;;;;;;;;;;;;;8.59;100.00;101345.19;3049434;19;20339;-52
2022/10/28 00:52:34;;;;;;;;;;;;;;;8.58;100.00;101351.41;3049459;19;19919;-53
2022/10/28 00:53:38;;;;;;;;;;;;;;;8.58;100.00;101348.75;3049017;19;19926;-52
2022/10/28 00:54:40;;;;;;;;;;;;;;;8.58;100.00;101354.94;3050811;19;19929;-52
2022/10/28 00:55:44;;;;;;;;;;;;;;;8.59;100.00;101339.84;3050286;19;19923;-52
2022/10/28 00:56:50;;;;;;;;;;;;;;;8.60;100.00;101349.56;3049462;19;20323;-52
2022/10/28 00:57:55;;;;;;;;;;;;;;;8.61;100.00;101348.66;3047556;19;19930;-53
2022/10/28 00:59:00;;;;;;;;;;;;;;;8.60;100.00;101345.13;3049726;19;19922;-53
2022/10/28 01:00:05;;;;;;;;;;;;;;;8.61;100.00;101338.88;3049064;19;19918;-52
2022/10/28 01:01:09;;;;;;;;;;;;;;;8.62;100.00;101345.06;3049059;19;19998;-52
2022/10/28 01:02:11;;;;;;;;;;;;;;;8.62;100.00;101339.75;3050436;19;19915;-52
2022/10/28 01:03:17;;;;;;;;;;;;;;;8.64;100.00;101337.88;3050424;19;20032;-53
2022/10/28 01:04:19;;;;;;;;;;;;;;;8.65;100.00;101342.28;3050932;19;20329;-53
2022/10/28 01:05:24;;;;;;;;;;;;;;;8.67;100.00;101335.13;3049504;19;19918;-53
2022/10/28 01:06:26;;;;;;;;;;;;;;;8.68;100.00;101339.50;3049239;19;20473;-53
2022/10/28 01:07:31;;;;;;;;;;;;;;;8.70;100.00;101337.63;3046015;19;19915;-54
2022/10/28 01:08:32;;;;;;;;;;;;;;;8.73;100.00;101342.84;3049144;19;19923;-53
2022/10/28 01:09:37;;;;;;;;;;;;;;;8.73;100.00;101337.50;3049536;19;19923;-52
2022/10/28 01:10:42;;;;;;;;;;;;;;;8.77;100.00;101336.47;3049710;19;20006;-52
2022/10/28 01:12:05;;;;;;;;;;;;;;;8.78;100.00;101337.34;3050482;19;19915;-52
2022/10/28 01:13:11;;;;;;;;;;;;;;;8.78;100.00;101330.22;3050876;19;19949;-52
2022/10/28 01:14:34;;;;;;;;;;;;;;;8.81;100.00;101337.22;3048964;19;20436;-52
2022/10/28 01:15:39;;;;;;;;;;;;;;;8.82;100.00;101333.59;3049593;19;20262;-53
2022/10/28 01:17:04;;;;;;;;;;;;;;;8.84;100.00;101321.09;3049970;19;19923;-52
2022/10/28 01:18:25;;;;;;;;;;;;;;;8.86;100.00;101322.78;3048010;19;19923;-52
2022/10/28 01:19:44;;;;;;;;;;;;;;;8.88;100.00;101325.38;3050037;19;20272;-53
2022/10/28 01:20:56;;;;;;;;;;;;;;;8.89;100.00;101327.97;3049077;19;20401;-54
2022/10/28 01:22:00;;;;;;;;;;;;;;;8.91;100.00;101326.13;3050490;19;19923;-53
2022/10/28 01:23:11;;;;;;;;;;;;;;;8.90;100.00;101326.19;3050432;19;19986;-53
2022/10/28 01:24:34;;;;;;;;;;;;;;;8.90;100.00;101323.53;3049993;19;20586;-53
2022/10/28 01:25:36;;;;;;;;;;;;;;;8.91;100.00;101325.25;3050273;19;19915;-52
2022/10/28 01:26:46;;;;;;;;;;;;;;;8.91;100.00;101323.47;3049852;19;19930;-52
2022/10/28 01:28:07;;;;;;;;;;;;;;;8.89;100.00;101322.66;3047434;19;20488;-52
2022/10/28 01:29:11;;;;;;;;;;;;;;;8.90;100.00;101329.72;3050214;19;19919;-52
2022/10/28 01:30:17;;;;;;;;;;;;;;;8.90;100.00;101324.41;3050614;19;20046;-52
2022/10/28 01:31:37;;;;;;;;;;;;;;;8.90;100.00;101327.06;3055057;19;19949;-52
2022/10/28 01:32:42;;;;;;;;;;;;;;;8.91;100.00;101323.47;3053658;19;19942;-52
2022/10/28 01:33:54;;;;;;;;;;;;;;;8.90;100.00;101324.41;3054086;19;19946;-52
2022/10/28 01:35:14;;;;;;;;;;;;;;;8.92;100.00;101322.53;3054915;19;19915;-52
2022/10/28 01:36:27;;;;;;;;;;;;;;;8.92;100.00;101322.53;3055597;19;19922;-52
2022/10/28 01:37:29;;;;;;;;;;;;;;;8.93;100.00;101323.41;3054882;19;19922;-52
2022/10/28 01:38:37;;;;;;;;;;;;;;;8.94;100.00;101325.97;3055306;19;19994;-52
2022/10/28 01:40:01;;;;;;;;;;;;;;;8.91;100.00;101315.47;3055060;19;20285;-52
2022/10/28 01:41:08;;;;;;;;;;;;;;;8.94;100.00;101315.34;3054988;19;20306;-52
2022/10/28 01:42:16;;;;;;;;;;;;;;;8.94;100.00;101315.34;3055189;19;19915;-52
2022/10/28 01:43:25;;;;;;;;;;;;;;;8.94;100.00;101315.34;3055854;19;19911;-52
2022/10/28 01:44:27;;;;;;;;;;;;;;;8.94;100.00;101320.66;3055294;19;19915;-52
2022/10/28 01:45:50;;;;;;;;;;;;;;;8.94;100.00;101325.97;3055196;19;19919;-52
2022/10/28 01:46:55;;;;;;;;;;;;;;;8.95;100.00;101317.06;3055675;19;19918;-52
2022/10/28 01:48:01;;;;;;;;;;;;;;;8.95;100.00;101322.38;3055979;19;20383;-52
2022/10/28 01:49:16;;;;;;;;;;;;;;;8.96;100.00;101321.47;3054904;19;20295;-53
2022/10/28 01:50:21;;;;;;;;;;;;;;;8.96;100.00;101329.44;3055393;19;19923;-52
2022/10/28 01:51:26;;;;;;;;;;;;;;;8.95;100.00;101327.72;3055554;19;19923;-52
2022/10/28 01:52:30;;;;;;;;;;;;;;;8.93;100.00;101334.06;3055951;19;19927;-52
2022/10/28 01:53:33;;;;;;;;;;;;;;;8.90;100.00;101324.41;3054681;19;20378;-53
2022/10/28 01:54:37;;;;;;;;;;;;;;;8.89;100.00;101327.13;3054027;19;20533;-52
2022/10/28 01:55:40;;;;;;;;;;;;;;;8.86;100.00;101322.78;3055060;19;19926;-52
2022/10/28 01:56:45;;;;;;;;;;;;;;;8.85;100.00;101321.03;3055481;19;19918;-53
2022/10/28 01:57:47;;;;;;;;;;;;;;;8.82;100.00;101323.81;3054567;19;19946;-53
2022/10/28 01:58:52;;;;;;;;;;;;;;;8.81;100.00;101324.78;3054642;19;19978;-52
2022/10/28 01:59:53;;;;;;;;;;;;;;;8.79;100.00;101331.97;3056596;19;19927;-52
2022/10/28 02:00:58;;;;;;;;;;;;;;;8.79;100.00;101336.41;3058530;19;19915;-52
2022/10/28 02:02:00;;;;;;;;;;;;;;;8.77;100.00;101324.97;3058051;19;19919;-52
2022/10/28 02:03:24;;;;;;;;;;;;;;;8.74;100.00;101331.25;3058842;19;19923;-52
2022/10/28 02:04:26;;;;;;;;;;;;;;;8.71;100.00;101331.38;3059040;19;19922;-52
2022/10/28 02:05:39;;;;;;;;;;;;;;;8.68;100.00;101328.00;3059146;19;20266;-52
2022/10/28 02:06:41;;;;;;;;;;;;;;;8.61;100.00;101316.72;3058971;19;20329;-52
2022/10/28 02:07:46;;;;;;;;;;;;;;;8.64;100.00;101327.25;3059044;19;19923;-52
2022/10/28 02:08:47;;;;;;;;;;;;;;;8.62;100.00;101326.44;3058049;19;19942;-52
2022/10/28 02:10:03;;;;;;;;;;;;;;;8.59;100.00;101323.88;3058484;19;19940;-52
2022/10/28 02:11:11;;;;;;;;;;;;;;;8.56;100.00;101318.72;3058144;19;19925;-52
2022/10/28 02:12:21;;;;;;;;;;;;;;;8.53;100.00;101324.16;3058149;19;19919;-53
2022/10/28 02:13:25;;;;;;;;;;;;;;;8.51;100.00;101310.03;3059152;19;20006;-52
2022/10/28 02:14:48;;;;;;;;;;;;;;;8.50;100.00;101314.50;3057504;19;19918;-53
2022/10/28 02:15:53;;;;;;;;;;;;;;;8.52;100.00;101301.13;3058361;19;19929;-52
2022/10/28 02:17:03;;;;;;;;;;;;;;;8.53;100.00;101303.75;3057846;19;19914;-52
2022/10/28 02:18:05;;;;;;;;;;;;;;;8.56;100.00;101308.06;3058259;19;20535;-53
2022/10/28 02:19:13;;;;;;;;;;;;;;;8.58;100.00;101296.41;3058024;19;19929;-52
2022/10/28 02:20:15;;;;;;;;;;;;;;;8.61;100.00;101298.09;3059261;19;20341;-52
2022/10/28 02:21:27;;;;;;;;;;;;;;;8.63;100.00;101291.78;3058893;19;19914;-52
2022/10/28 02:22:29;;;;;;;;;;;;;;;8.68;100.00;101286.28;3058997;19;19918;-52
2022/10/28 02:23:45;;;;;;;;;;;;;;;8.70;100.00;101284.41;3058320;19;19923;-52
2022/10/28 02:24:53;;;;;;;;;;;;;;;8.73;100.00;101284.28;3058034;19;20002;-52
2022/10/28 02:26:00;;;;;;;;;;;;;;;8.77;100.00;101287.69;3058649;19;19972;-52
2022/10/28 02:27:05;;;;;;;;;;;;;;;8.78;100.00;101277.00;3057662;19;19937;-52
2022/10/28 02:28:10;;;;;;;;;;;;;;;8.82;100.00;101272.38;3058051;19;19923;-52
2022/10/28 02:29:15;;;;;;;;;;;;;;;8.85;100.00;101283.78;3057735;19;20281;-52
2022/10/28 02:30:24;;;;;;;;;;;;;;;8.88;100.00;101272.16;3058638;19;20341;-52
2022/10/28 02:31:33;;;;;;;;;;;;;;;8.91;100.00;101277.34;3057778;19;20027;-52
2022/10/28 02:32:37;;;;;;;;;;;;;;;8.93;100.00;101271.03;3058255;19;19998;-52
2022/10/28 02:33:41;;;;;;;;;;;;;;;8.95;100.00;101269.16;3057908;19;19929;-52
2022/10/28 02:34:44;;;;;;;;;;;;;;;8.97;100.00;101261.97;3056978;19;19919;-53
2022/10/28 02:35:52;;;;;;;;;;;;;;;8.99;100.00;101249.47;3057969;19;19919;-52
2022/10/28 02:36:54;;;;;;;;;;;;;;;9.02;100.00;101249.34;3058629;19;20265;-52
2022/10/28 02:37:59;;;;;;;;;;;;;;;9.03;100.00;101253.72;3059209;19;20353;-52
2022/10/28 02:39:01;;;;;;;;;;;;;;;9.04;100.00;101246.63;3058752;19;19925;-54
2022/10/28 02:40:07;;;;;;;;;;;;;;;9.06;100.00;101250.06;3057838;19;20215;-52
2022/10/28 02:41:14;;;;;;;;;;;;;;;9.06;100.00;101249.22;3058027;19;19922;-53
2022/10/28 02:42:20;;;;;;;;;;;;;;;9.07;100.00;101256.25;3057766;19;19926;-52
2022/10/28 02:43:21;;;;;;;;;;;;;;;9.06;100.00;101244.72;3057910;19;19923;-52
2022/10/28 02:44:33;;;;;;;;;;;;;;;9.05;100.00;101247.47;3057821;19;19919;-52
2022/10/28 02:45:37;;;;;;;;;;;;;;;9.06;100.00;101246.56;3057540;19;19946;-52
2022/10/28 02:46:42;;;;;;;;;;;;;;;9.05;100.00;101247.47;3058243;19;20160;-52
2022/10/28 02:47:54;;;;;;;;;;;;;;;9.05;100.00;101252.81;3057491;19;19915;-52
2022/10/28 02:48:59;;;;;;;;;;;;;;;9.06;100.00;101254.53;3057954;19;19922;-52
2022/10/28 02:50:02;;;;;;;;;;;;;;;9.05;100.00;101252.81;3057644;19;19937;-52
2022/10/28 02:51:13;;;;;;;;;;;;;;;9.05;100.00;101255.47;3057872;19;19915;-53
2022/10/28 02:52:15;;;;;;;;;;;;;;;9.03;100.00;101255.53;3057517;19;19999;-53
2022/10/28 02:53:23;;;;;;;;;;;;;;;9.03;100.00;101256.41;3058024;19;19919;-52
2022/10/28 02:54:58;;;;;;;;;;;;;;;9.04;100.00;101251.94;3057707;19;20318;-52
2022/10/28 02:56:00;;;;;;;;;;;;;;;9.02;100.00;101260.00;3057743;19;19972;-53
2022/10/28 02:57:07;;;;;;;;;;;;;;;9.01;100.00;101268.03;3057835;19;19919;-53
2022/10/28 02:58:09;;;;;;;;;;;;;;;8.98;100.00;101268.16;3057451;19;20338;-52
2022/10/28 02:59:14;;;;;;;;;;;;;;;8.94;100.00;101270.06;3057470;19;20337;-53
2022/10/28 03:00:17;;;;;;;;;;;;;;;8.91;100.00;101266.69;3056611;19;19922;-52
2022/10/28 03:01:21;;;;;;;;;;;;;;;8.86;100.00;101274.88;3057905;19;20684;-52
2022/10/28 03:02:24;;;;;;;;;;;;;;;8.85;100.00;101272.28;3057047;19;19915;-52
2022/10/28 03:03:28;;;;;;;;;;;;;;;8.82;100.00;101262.59;3058412;19;19941;-52
2022/10/28 03:04:30;;;;;;;;;;;;;;;8.81;100.00;101266.22;3058274;19;20219;-52
2022/10/28 03:05:34;;;;;;;;;;;;;;;8.80;100.00;101259.19;3058695;19;19923;-52
2022/10/28 03:06:36;;;;;;;;;;;;;;;8.79;100.00;101261.91;3058556;19;20416;-52
2022/10/28 03:07:40;;;;;;;;;;;;;;;8.78;100.00;101260.16;3058437;19;19941;-52
2022/10/28 03:08:42;;;;;;;;;;;;;;;8.77;100.00;101264.63;3058032;19;19919;-52
2022/10/28 03:09:47;;;;;;;;;;;;;;;8.74;100.00;101270.06;3058249;19;20255;-52
2022/10/28 03:10:48;;;;;;;;;;;;;;;8.72;100.00;101261.25;3058038;19;20241;-52
2022/10/28 03:11:53;;;;;;;;;;;;;;;8.69;100.00;101266.75;3058411;19;20583;-52
2022/10/28 03:12:54;;;;;;;;;;;;;;;8.66;100.00;101262.41;3057059;19;19934;-53
2022/10/28 03:13:59;;;;;;;;;;;;;;;8.65;100.00;101265.13;3057040;19;20561;-52
2022/10/28 03:15:01;;;;;;;;;;;;;;;8.63;100.00;101256.34;3057221;19;19926;-52
2022/10/28 03:16:06;;;;;;;;;;;;;;;8.61;100.00;101258.19;3058367;19;19919;-53
2022/10/28 03:17:08;;;;;;;;;;;;;;;8.59;100.00;101266.22;3058322;19;20605;-52
2022/10/28 03:18:12;;;;;;;;;;;;;;;8.58;100.00;101263.63;3057840;19;19919;-53
2022/10/28 03:19:14;;;;;;;;;;;;;;;8.55;100.00;101258.44;3057267;19;19949;-52
2022/10/28 03:20:18;;;;;;;;;;;;;;;8.54;100.00;101256.72;3058396;19;19927;-52
2022/10/28 03:21:20;;;;;;;;;;;;;;;8.52;100.00;101259.44;3057849;19;19919;-52
2022/10/28 03:22:25;;;;;;;;;;;;;;;8.51;100.00;101259.50;3058167;19;20241;-52
2022/10/28 03:23:27;;;;;;;;;;;;;;;8.50;100.00;101260.41;3058047;19;19926;-52
2022/10/28 03:24:31;;;;;;;;;;;;;;;8.48;100.00;101263.13;3058273;19;19918;-53
2022/10/28 03:25:33;;;;;;;;;;;;;;;8.45;100.00;101268.56;3058047;19;20061;-52
2022/10/28 03:26:37;;;;;;;;;;;;;;;8.43;100.00;101267.78;3058049;19;19934;-52
2022/10/28 03:27:40;;;;;;;;;;;;;;;8.42;100.00;101266.06;3057667;19;20346;-52
2022/10/28 03:28:44;;;;;;;;;;;;;;;8.42;100.00;101267.84;3057688;19;20325;-52
2022/10/28 03:29:46;;;;;;;;;;;;;;;8.41;100.00;101268.78;3057950;19;19931;-52
2022/10/28 03:30:50;;;;;;;;;;;;;;;8.39;100.00;101266.19;3058080;19;19957;-52
2022/10/28 03:31:52;;;;;;;;;;;;;;;8.37;100.00;101260.06;3057815;19;19998;-52
2022/10/28 03:32:57;;;;;;;;;;;;;;;8.37;100.00;101264.50;3058008;19;19918;-52
2022/10/28 03:33:59;;;;;;;;;;;;;;;8.37;100.00;101264.50;3056840;19;19927;-52
2022/10/28 03:35:04;;;;;;;;;;;;;;;8.37;100.00;101259.19;3056964;19;19919;-52
2022/10/28 03:36:08;;;;;;;;;;;;;;;8.36;100.00;101266.28;3057064;19;19926;-53
2022/10/28 03:37:10;;;;;;;;;;;;;;;8.38;100.00;101260.91;3057990;19;19948;-52
2022/10/28 03:38:14;;;;;;;;;;;;;;;8.39;100.00;101260.00;3057910;19;20242;-52
2022/10/28 03:39:16;;;;;;;;;;;;;;;8.39;100.00;101262.66;3058179;19;19925;-53
2022/10/28 03:40:21;;;;;;;;;;;;;;;8.41;100.00;101255.47;3058283;19;19957;-52
2022/10/28 03:41:22;;;;;;;;;;;;;;;8.42;100.00;101252.75;3058078;19;19950;-52
2022/10/28 03:42:27;;;;;;;;;;;;;;;8.44;100.00;101242.06;3057833;19;19919;-52
2022/10/28 03:43:29;;;;;;;;;;;;;;;8.45;100.00;101247.28;3058440;19;19934;-53
2022/10/28 03:44:33;;;;;;;;;;;;;;;8.47;100.00;101240.13;3057611;19;19914;-52
2022/10/28 03:45:35;;;;;;;;;;;;;;;8.49;100.00;101242.72;3058208;19;20254;-52
2022/10/28 03:46:39;;;;;;;;;;;;;;;8.50;100.00;101239.13;3057842;19;20553;-52
2022/10/28 03:47:41;;;;;;;;;;;;;;;8.53;100.00;101233.69;3058013;19;19948;-52
2022/10/28 03:48:46;;;;;;;;;;;;;;;8.55;100.00;101243.34;3057995;19;19936;-53
2022/10/28 03:49:47;;;;;;;;;;;;;;;8.58;100.00;101231.69;3057332;19;19919;-53
2022/10/28 03:50:55;;;;;;;;;;;;;;;8.60;100.00;101241.34;3057977;19;19926;-52
2022/10/28 03:51:57;;;;;;;;;;;;;;;8.61;100.00;101240.44;3057449;19;19918;-52
2022/10/28 03:53:02;;;;;;;;;;;;;;;8.60;100.00;101240.50;3057746;19;20381;-52
2022/10/28 03:54:04;;;;;;;;;;;;;;;8.56;100.00;101234.44;3057013;19;19923;-53
2022/10/28 03:55:08;;;;;;;;;;;;;;;8.52;100.00;101237.28;3057256;19;19926;-52
2022/10/28 03:56:10;;;;;;;;;;;;;;;8.47;100.00;101233.94;3057203;19;19923;-53
2022/10/28 03:57:15;;;;;;;;;;;;;;;8.44;100.00;101228.78;3057516;19;19915;-52
2022/10/28 03:58:16;;;;;;;;;;;;;;;8.41;100.00;101229.75;3056533;19;19919;-53
2022/10/28 03:59:21;;;;;;;;;;;;;;;8.38;100.00;101223.69;3056859;19;19927;-52
2022/10/28 04:00:23;;;;;;;;;;;;;;;8.38;100.00;101227.22;3056953;19;19945;-52
2022/10/28 04:01:27;;;;;;;;;;;;;;;8.39;100.00;101231.59;3057748;19;19926;-52
2022/10/28 04:02:29;;;;;;;;;;;;;;;8.40;100.00;101228.00;3056925;19;19919;-52
2022/10/28 04:03:34;;;;;;;;;;;;;;;8.42;100.00;101231.50;3057653;19;19935;-53
2022/10/28 04:04:36;;;;;;;;;;;;;;;8.47;100.00;101233.94;3057247;19;19915;-53
2022/10/28 04:05:40;;;;;;;;;;;;;;;8.48;100.00;101231.22;3057432;19;20373;-52
2022/10/28 04:06:42;;;;;;;;;;;;;;;8.51;100.00;101232.91;3057485;19;19915;-53
2022/10/28 04:07:46;;;;;;;;;;;;;;;8.51;100.00;101231.09;3057436;19;20018;-52
2022/10/28 04:08:49;;;;;;;;;;;;;;;8.52;100.00;101231.97;3057455;19;19932;-52
2022/10/28 04:09:53;;;;;;;;;;;;;;;8.51;100.00;101231.09;3057540;19;19923;-52
2022/10/28 04:10:55;;;;;;;;;;;;;;;8.53;100.00;101233.69;3057352;19;19926;-52
2022/10/28 04:11:59;;;;;;;;;;;;;;;8.52;100.00;101234.63;3057448;19;19926;-52
2022/10/28 04:13:01;;;;;;;;;;;;;;;8.50;100.00;101234.69;3056066;19;19926;-52
2022/10/28 04:14:06;;;;;;;;;;;;;;;8.49;100.00;101238.28;3057780;19;20019;-52
2022/10/28 04:15:08;;;;;;;;;;;;;;;8.49;100.00;101237.41;3057141;19;19922;-52
2022/10/28 04:16:12;;;;;;;;;;;;;;;8.48;100.00;101235.66;3056917;19;20248;-52
2022/10/28 04:17:14;;;;;;;;;;;;;;;8.48;100.00;101241.00;3056761;19;19994;-52
2022/10/28 04:18:18;;;;;;;;;;;;;;;8.46;100.00;101242.84;3057479;19;19926;-52
2022/10/28 04:19:20;;;;;;;;;;;;;;;8.46;100.00;101242.84;3056435;19;19915;-53
2022/10/28 04:20:25;;;;;;;;;;;;;;;8.44;100.00;101239.41;3056469;19;19945;-52
2022/10/28 04:21:26;;;;;;;;;;;;;;;8.44;100.00;101231.44;3057162;19;19934;-52
2022/10/28 04:22:31;;;;;;;;;;;;;;;8.42;100.00;101246.56;3055638;19;19919;-53
2022/10/28 04:23:35;;;;;;;;;;;;;;;8.40;100.00;101243.97;3057001;19;19927;-52
2022/10/28 04:24:37;;;;;;;;;;;;;;;8.36;100.00;101242.34;3057583;19;20340;-52
2022/10/28 04:25:41;;;;;;;;;;;;;;;8.34;100.00;101243.34;3057249;19;19945;-52
2022/10/28 04:26:43;;;;;;;;;;;;;;;8.32;100.00;101245.22;3057208;19;19930;-52
2022/10/28 04:27:48;;;;;;;;;;;;;;;8.30;100.00;101248.78;3056948;19;20372;-52
2022/10/28 04:28:52;;;;;;;;;;;;;;;8.27;100.00;101243.56;3057187;19;20406;-53
2022/10/28 04:29:56;;;;;;;;;;;;;;;8.26;100.00;101246.28;3057113;19;20030;-52
2022/10/28 04:30:58;;;;;;;;;;;;;;;8.25;100.00;101248.06;3058428;19;19919;-52
2022/10/28 04:32:03;;;;;;;;;;;;;;;8.25;100.00;101241.88;3056815;19;19999;-52
2022/10/28 04:33:05;;;;;;;;;;;;;;;8.27;100.00;101242.69;3057165;19;19919;-53
2022/10/28 04:34:09;;;;;;;;;;;;;;;8.29;100.00;101241.72;3057049;19;20294;-52
2022/10/28 04:35:11;;;;;;;;;;;;;;;8.29;100.00;101231.09;3057060;19;20556;-52
2022/10/28 04:36:15;;;;;;;;;;;;;;;8.33;100.00;101237.19;3056568;19;20353;-52
2022/10/28 04:37:19;;;;;;;;;;;;;;;8.35;100.00;101226.47;3057510;19;20027;-52
2022/10/28 04:38:24;;;;;;;;;;;;;;;8.38;100.00;101239.63;3056816;19;19934;-52
2022/10/28 04:39:26;;;;;;;;;;;;;;;8.37;100.00;101233.44;3057043;19;19918;-52
2022/10/28 04:40:30;;;;;;;;;;;;;;;8.37;100.00;101224.59;3057012;19;19926;-52
2022/10/28 04:41:32;;;;;;;;;;;;;;;8.34;100.00;101222.94;3057170;19;19930;-52
2022/10/28 04:42:37;;;;;;;;;;;;;;;8.33;100.00;101226.53;3056461;19;19918;-52
2022/10/28 04:43:38;;;;;;;;;;;;;;;8.30;100.00;101227.50;3057047;19;19918;-52
2022/10/28 04:44:43;;;;;;;;;;;;;;;8.27;100.00;101226.75;3056734;19;19935;-52
2022/10/28 04:45:45;;;;;;;;;;;;;;;8.25;100.00;101223.28;3056957;19;19929;-52
2022/10/28 04:46:49;;;;;;;;;;;;;;;8.25;100.00;101223.28;3056845;19;19922;-52
2022/10/28 04:47:58;;;;;;;;;;;;;;;8.28;100.00;101218.72;3056977;19;19927;-52
2022/10/28 04:49:02;;;;;;;;;;;;;;;8.29;100.00;101217.78;3057999;19;19926;-52
2022/10/28 04:50:04;;;;;;;;;;;;;;;8.34;100.00;101211.44;3056952;19;19933;-53
2022/10/28 04:51:08;;;;;;;;;;;;;;;8.37;100.00;101217.50;3056718;19;20621;-53
2022/10/28 04:52:10;;;;;;;;;;;;;;;8.40;100.00;101211.19;3056886;19;20035;-52
2022/10/28 04:53:19;;;;;;;;;;;;;;;8.44;100.00;101207.50;3055880;19;19942;-53
2022/10/28 04:54:20;;;;;;;;;;;;;;;8.46;100.00;101202.94;3056102;19;19918;-52
2022/10/28 04:55:25;;;;;;;;;;;;;;;8.50;100.00;101199.25;3056490;19;19919;-53
2022/10/28 04:56:27;;;;;;;;;;;;;;;8.53;100.00;101199.97;3056834;19;19918;-52
2022/10/28 04:57:32;;;;;;;;;;;;;;;8.58;100.00;101199.78;3056548;19;19918;-52
2022/10/28 04:58:33;;;;;;;;;;;;;;;8.60;100.00;101190.81;3056762;19;19911;-52
2022/10/28 04:59:38;;;;;;;;;;;;;;;8.65;100.00;101190.63;3055630;19;19935;-53
2022/10/28 05:00:40;;;;;;;;;;;;;;;8.68;100.00;101190.50;3055965;19;19938;-53
2022/10/28 05:01:44;;;;;;;;;;;;;;;8.71;100.00;101195.66;3056962;19;19927;-52
2022/10/28 05:02:46;;;;;;;;;;;;;;;8.76;100.00;101184.84;3056882;19;20074;-53
2022/10/28 05:03:51;;;;;;;;;;;;;;;8.79;100.00;101188.25;3057755;19;20033;-52
2022/10/28 05:04:53;;;;;;;;;;;;;;;8.81;100.00;101186.38;3056755;19;19926;-53
2022/10/28 05:05:57;;;;;;;;;;;;;;;8.85;100.00;101187.97;3055609;19;19990;-52
2022/10/28 05:06:59;;;;;;;;;;;;;;;8.88;100.00;101192.28;3055704;19;19936;-54
2022/10/28 05:08:03;;;;;;;;;;;;;;;8.90;100.00;101182.44;3054715;19;20005;-53
2022/10/28 05:09:05;;;;;;;;;;;;;;;8.91;100.00;101187.72;3056115;19;19950;-53
2022/10/28 05:10:11;;;;;;;;;;;;;;;8.94;100.00;101186.69;3054156;19;20046;-53
2022/10/28 05:11:12;;;;;;;;;;;;;;;8.93;100.00;101180.53;3053154;19;19918;-52
2022/10/28 05:12:17;;;;;;;;;;;;;;;8.96;100.00;101185.69;3055015;19;20322;-51
2022/10/28 05:13:19;;;;;;;;;;;;;;;8.96;100.00;101183.03;3054673;19;19930;-51
2022/10/28 05:14:23;;;;;;;;;;;;;;;8.98;100.00;101177.66;3056268;19;19992;-51
2022/10/28 05:15:30;;;;;;;;;;;;;;;8.97;100.00;101176.78;3054598;19;19922;-51
2022/10/28 05:16:34;;;;;;;;;;;;;;;8.97;100.00;101176.78;3056600;19;19919;-51
2022/10/28 05:17:39;;;;;;;;;;;;;;;8.99;100.00;101174.06;3051253;19;19945;-51
2022/10/28 05:18:44;;;;;;;;;;;;;;;8.98;100.00;101183.84;3055150;19;19962;-50
2022/10/28 05:20:06;;;;;;;;;;;;;;;8.98;100.00;101173.19;3054055;19;20361;-54
2022/10/28 05:21:10;;;;;;;;;;;;;;;8.98;100.00;101173.19;3058091;19;19958;-53
2022/10/28 05:22:12;;;;;;;;;;;;;;;8.99;100.00;101174.91;3057101;19;19926;-54
2022/10/28 05:23:16;;;;;;;;;;;;;;;8.99;100.00;101174.91;3055893;19;20468;-55
2022/10/28 05:24:18;;;;;;;;;;;;;;;9.01;100.00;101178.38;3056416;19;19926;-53
2022/10/28 05:25:23;;;;;;;;;;;;;;;9.01;100.00;101173.06;3056723;19;19945;-56
2022/10/28 05:26:25;;;;;;;;;;;;;;;9.00;100.00;101171.31;3057788;19;19944;-54
2022/10/28 05:27:29;;;;;;;;;;;;;;;9.01;100.00;101172.19;3056155;19;19957;-56
2022/10/28 05:28:34;;;;;;;;;;;;;;;9.01;100.00;101177.53;3054922;19;19950;-56
2022/10/28 05:29:35;;;;;;;;;;;;;;;9.02;100.00;101173.94;3056833;19;19933;-54
2022/10/28 05:30:40;;;;;;;;;;;;;;;9.01;100.00;101173.06;3057391;19;19923;-54
2022/10/28 05:31:42;;;;;;;;;;;;;;;9.02;100.00;101172.13;3057931;19;20348;-55
2022/10/28 05:32:46;;;;;;;;;;;;;;;9.03;100.00;101165.00;3057318;19;19958;-56
2022/10/28 05:33:56;;;;;;;;;;;;;;;9.07;100.00;101168.38;3055243;19;19945;-56